Archival Weather

Vermilion Rgnl

Danville, Illinois (KDNV)

Report from: Saturday, April 13, 2024 8:55 AM CDT
Current time: Sunday, July 14, 2024 4:59 AM CDT

Current weather – Weather history – Daily summaries
Weather forecast

Temperature12.6°C (54.7°F)
Dew point2.2°C (36.0°F)
Winds 5 kts (2.6 m/s, 5.8 mph) West-Northwest (300°)
Visibility10 mi. (16.1 km)
Clouds Sky clear
Altimeter30.15 in.Hg (1021 mB)
Relative humidity49 %
Density altitude-439 ft. (-134 m)
Remarks Fully automated report
Automated weather observing station with precipitation discriminator
Flight conditions Visual Meteorological Conditions
Raw dataKDNV 131355Z AUTO 30005KT 10SM CLR 13/02 A3015 RMK AO2 T01260022
An error has occurred. This application may no longer respond until reloaded. Reload 🗙